Sheridan Park, Washington
Current Conditions -  °F | °C
As of 12:55 AM on Wednesday 22 Oct 2014 (Local Time) from KPWT Reporting Station
Overcast Overcast  
Wind Chill: 12°   Ceiling: 4000
Heat Index: 12°   Visibility: 10mi
Dew Point: 10°   Wind: 17mph
Humidity: 88%   Direction: 170°S
Pressure: 29.73"   Gusts: 23mph
Location:  47.6314°N, 122.638°W
Report Text: KPWT 220755Z AUTO 17015G20KT 10SM SCT032 BKN040 OVC050 12/10 A2973 RMK AO1 P0002
Loading
Personal Weather Stations






























Interactive Weather Map
Tropical Storm Tracking
New forecast layout! Learn more

10-Day Weather Forecast

Advertisements
Track Severe Weather on mobile